Time,TemperatureF,DewpointF,PressureIn,WindDirection,WindDirectionDegrees,WindSpeedMPH,WindSpeedGustMPH,Humidity,HourlyPrecipIn,Conditions,Clouds,dailyrainin,SolarRadiationWatts/m^2,SoftwareType,DateUTC
2013-08-14 00:10:00,69.0,44.0,31.38,NE,40,3.0,7.0,41,0.00,,,0.00,0,weatherlink.com 1.10,2013-08-14 06:10:00,
2013-08-14 00:25:00,68.7,44.0,31.38,NE,43,3.0,7.0,41,0.00,,,0.00,0,weatherlink.com 1.10,2013-08-14 06:25:00,
2013-08-14 00:40:00,67.3,45.0,31.39,NW,321,0.0,4.0,44,0.00,,,0.00,0,weatherlink.com 1.10,2013-08-14 06:40:00,
2013-08-14 00:55:00,65.4,45.0,31.39,WNW,285,0.0,4.0,48,0.00,,,0.00,0,weatherlink.com 1.10,2013-08-14 06:55:00,
2013-08-14 01:10:00,64.5,45.0,31.39,WNW,300,0.0,3.0,49,0.00,,,0.00,0,weatherlink.com 1.10,2013-08-14 07:10:00,
2013-08-14 01:25:00,64.0,45.0,31.39,WNW,300,0.0,2.0,50,0.00,,,0.00,0,weatherlink.com 1.10,2013-08-14 07:25:00,
2013-08-14 01:40:00,64.7,45.0,31.39,WNW,300,3.0,3.0,49,0.00,,,0.00,0,weatherlink.com 1.10,2013-08-14 07:40:00,
2013-08-14 01:55:00,64.7,44.0,31.39,WNW,300,3.0,4.0,48,0.00,,,0.00,0,weatherlink.com 1.10,2013-08-14 07:55:00,
2013-08-14 02:10:00,64.7,44.0,31.39,SE,126,1.0,4.0,48,0.00,,,0.00,0,weatherlink.com 1.10,2013-08-14 08:10:00,
2013-08-14 02:25:00,64.6,45.0,31.39,SE,128,0.0,2.0,49,0.00,,,0.00,0,weatherlink.com 1.10,2013-08-14 08:25:00,
2013-08-14 02:40:00,63.5,44.0,31.39,SE,128,0.0,0.0,50,0.00,,,0.00,0,weatherlink.com 1.10,2013-08-14 08:40:00,
2013-08-14 02:55:00,63.0,44.0,31.39,SE,128,0.0,0.0,51,0.00,,,0.00,0,weatherlink.com 1.10,2013-08-14 08:55:00,
2013-08-14 03:10:00,62.8,44.0,31.39,SE,128,0.0,3.0,51,0.00,,,0.00,0,weatherlink.com 1.10,2013-08-14 09:10:00,
2013-08-14 03:25:00,63.0,43.0,31.39,SSE,147,1.0,3.0,49,0.00,,,0.00,0,weatherlink.com 1.10,2013-08-14 09:25:00,
2013-08-14 03:40:00,62.0,42.0,31.39,SSE,155,0.0,4.0,48,0.00,,,0.00,0,weatherlink.com 1.10,2013-08-14 09:40:00,
2013-08-14 03:55:00,61.5,41.0,31.39,SSE,166,4.0,5.0,48,0.00,,,0.00,0,weatherlink.com 1.10,2013-08-14 09:55:00,
2013-08-14 04:10:00,62.4,41.0,31.39,SSE,159,5.0,8.0,45,0.00,,,0.00,0,weatherlink.com 1.10,2013-08-14 10:10:00,
2013-08-14 04:25:00,61.7,41.0,31.40,South,182,1.0,5.0,46,0.00,,,0.00,0,weatherlink.com 1.10,2013-08-14 10:25:00,
2013-08-14 04:40:00,60.0,41.0,31.40,SSE,160,2.0,5.0,49,0.00,,,0.00,0,weatherlink.com 1.10,2013-08-14 10:40:00,
2013-08-14 04:55:00,59.3,41.0,31.40,SSE,160,0.0,1.0,51,0.00,,,0.00,0,weatherlink.com 1.10,2013-08-14 10:55:00,
2013-08-14 05:10:00,58.3,41.0,31.40,SSE,160,0.0,3.0,52,0.00,,,0.00,0,weatherlink.com 1.10,2013-08-14 11:10:00,
2013-08-14 05:25:00,58.7,41.0,31.40,SSE,160,0.0,0.0,52,0.00,,,0.00,0,weatherlink.com 1.10,2013-08-14 11:25:00,
2013-08-14 05:40:00,58.7,41.0,31.40,SSE,160,0.0,1.0,53,0.00,,,0.00,0,weatherlink.com 1.10,2013-08-14 11:40:00,
2013-08-14 05:55:00,57.8,42.0,31.40,SSE,160,0.0,0.0,55,0.00,,,0.00,0,weatherlink.com 1.10,2013-08-14 11:55:00,
2013-08-14 06:10:00,57.5,42.0,31.41,South,180,0.0,2.0,56,0.00,,,0.00,0,weatherlink.com 1.10,2013-08-14 12:10:00,
2013-08-14 06:25:00,56.5,42.0,31.41,South,172,0.0,1.0,59,0.00,,,0.00,0,weatherlink.com 1.10,2013-08-14 12:25:00,
2013-08-14 06:40:00,56.6,41.0,31.41,South,182,0.0,3.0,57,0.00,,,0.00,5,weatherlink.com 1.10,2013-08-14 12:40:00,
2013-08-14 06:55:00,56.1,42.0,31.42,South,182,0.0,1.0,59,0.00,,,0.00,12,weatherlink.com 1.10,2013-08-14 12:55:00,
2013-08-14 07:11:00,56.2,42.0,31.43,South,182,0.0,0.0,59,0.00,,,0.00,18,weatherlink.com 1.10,2013-08-14 13:11:00,
2013-08-14 07:26:00,56.1,42.0,31.43,South,182,0.0,1.0,59,0.00,,,0.00,25,weatherlink.com 1.10,2013-08-14 13:26:00,
2013-08-14 07:41:00,56.7,41.0,31.44,South,182,0.0,1.0,57,0.00,,,0.00,28,weatherlink.com 1.10,2013-08-14 13:41:00,
2013-08-14 07:56:00,57.4,41.0,31.44,South,182,0.0,0.0,55,0.00,,,0.00,70,weatherlink.com 1.10,2013-08-14 13:56:00,
2013-08-14 08:11:00,59.4,42.0,31.44,South,182,0.0,0.0,53,0.00,,,0.00,111,weatherlink.com 1.10,2013-08-14 14:11:00,
2013-08-14 08:26:00,60.4,42.0,31.45,South,182,0.0,0.0,52,0.00,,,0.00,162,weatherlink.com 1.10,2013-08-14 14:26:00,
2013-08-14 08:41:00,62.0,42.0,31.44,South,182,0.0,1.0,49,0.00,,,0.00,207,weatherlink.com 1.10,2013-08-14 14:41:00,
2013-08-14 08:56:00,62.8,43.0,31.44,SW,223,1.0,3.0,48,0.00,,,0.00,250,weatherlink.com 1.10,2013-08-14 14:56:00,
2013-08-14 09:11:00,62.5,43.0,31.44,SW,223,0.0,1.0,49,0.00,,,0.00,272,weatherlink.com 1.10,2013-08-14 15:11:00,
2013-08-14 09:26:00,62.7,43.0,31.44,West,275,0.0,3.0,49,0.00,,,0.00,330,weatherlink.com 1.10,2013-08-14 15:26:00,
2013-08-14 09:41:00,63.4,44.0,31.44,WNW,298,1.0,3.0,49,0.00,,,0.00,374,weatherlink.com 1.10,2013-08-14 15:41:00,
2013-08-14 09:56:00,64.2,44.0,31.43,WNW,296,0.0,3.0,48,0.00,,,0.00,411,weatherlink.com 1.10,2013-08-14 15:56:00,
2013-08-14 10:11:00,65.0,44.0,31.43,NW,306,0.0,4.0,47,0.00,,,0.00,454,weatherlink.com 1.10,2013-08-14 16:11:00,
2013-08-14 10:26:00,66.1,44.0,31.43,WNW,303,0.0,4.0,45,0.00,,,0.00,494,weatherlink.com 1.10,2013-08-14 16:26:00,
2013-08-14 10:41:00,67.5,44.0,31.42,WNW,295,0.0,3.0,43,0.00,,,0.00,531,weatherlink.com 1.10,2013-08-14 16:41:00,
2013-08-14 10:56:00,67.3,43.0,31.42,SW,218,4.0,6.0,42,0.00,,,0.00,570,weatherlink.com 1.10,2013-08-14 16:56:00,
2013-08-14 11:11:00,67.5,43.0,31.41,SSW,198,4.0,7.0,41,0.00,,,0.00,608,weatherlink.com 1.10,2013-08-14 17:11:00,
2013-08-14 11:26:00,68.1,43.0,31.41,WSW,238,0.0,5.0,40,0.00,,,0.00,640,weatherlink.com 1.10,2013-08-14 17:26:00,
2013-08-14 11:42:00,69.5,42.0,31.40,WSW,252,0.0,4.0,37,0.00,,,0.00,673,weatherlink.com 1.10,2013-08-14 17:42:00,
2013-08-14 11:57:00,72.1,43.0,31.39,WSW,237,0.0,4.0,35,0.00,,,0.00,707,weatherlink.com 1.10,2013-08-14 17:57:00,
2013-08-14 12:12:00,74.1,43.0,31.39,WNW,292,4.0,4.0,33,0.00,,,0.00,738,weatherlink.com 1.10,2013-08-14 18:12:00,
2013-08-14 12:27:00,75.3,43.0,31.38,West,269,0.0,10.0,32,0.00,,,0.00,661,weatherlink.com 1.10,2013-08-14 18:27:00,
2013-08-14 12:42:00,76.0,42.0,31.37,WSW,245,4.0,7.0,30,0.00,,,0.00,691,weatherlink.com 1.10,2013-08-14 18:42:00,
2013-08-14 13:42:00,79.8,41.0,31.34,West,278,1.0,9.0,25,0.00,,,0.00,768,weatherlink.com 1.10,2013-08-14 19:42:00,
2013-08-14 14:12:00,-999.0,-99.9,31.32,North,-999,-999.0,-999.0,-999,0.00,,,0.00,,weatherlink.com 1.10,2013-08-14 20:12:00,
2013-08-14 14:42:00,-999.0,-99.9,31.32,North,-999,-999.0,-999.0,-999,0.00,,,0.00,,weatherlink.com 1.10,2013-08-14 20:42:00,
2013-08-14 14:57:00,-999.0,-99.9,31.31,North,-999,-999.0,-999.0,-999,0.00,,,0.00,,weatherlink.com 1.10,2013-08-14 20:57:00,
2013-08-14 15:12:00,-999.0,-99.9,31.31,North,-999,-999.0,-999.0,-999,0.00,,,0.00,,weatherlink.com 1.10,2013-08-14 21:12:00,
2013-08-14 15:27:00,-999.0,-99.9,31.30,North,-999,-999.0,-999.0,-999,0.00,,,0.00,,weatherlink.com 1.10,2013-08-14 21:27:00,
2013-08-14 15:43:00,-999.0,-99.9,31.30,North,-999,-999.0,-999.0,-999,0.00,,,0.00,,weatherlink.com 1.10,2013-08-14 21:43:00,
2013-08-14 15:58:00,-999.0,-99.9,31.30,North,-999,-999.0,-999.0,-999,0.00,,,0.00,,weatherlink.com 1.10,2013-08-14 21:58:00,
2013-08-14 16:13:00,-999.0,-99.9,31.29,North,-999,-999.0,-999.0,-999,0.00,,,0.00,,weatherlink.com 1.10,2013-08-14 22:13:00,
2013-08-14 16:28:00,-999.0,-99.9,31.28,North,-999,-999.0,-999.0,-999,0.00,,,0.00,,weatherlink.com 1.10,2013-08-14 22:28:00,
2013-08-14 16:43:00,-999.0,-99.9,31.28,North,-999,-999.0,-999.0,-999,0.00,,,0.00,,weatherlink.com 1.10,2013-08-14 22:43:00,
2013-08-14 16:58:00,-999.0,-99.9,31.28,North,-999,-999.0,-999.0,-999,0.00,,,0.00,,weatherlink.com 1.10,2013-08-14 22:58:00,
2013-08-14 17:13:00,-999.0,-99.9,31.28,North,-999,-999.0,-999.0,-999,0.00,,,0.00,,weatherlink.com 1.10,2013-08-14 23:13:00,
2013-08-14 17:28:00,-999.0,-99.9,31.27,North,-999,-999.0,-999.0,-999,0.00,,,0.00,,weatherlink.com 1.10,2013-08-14 23:28:00,
2013-08-14 17:43:00,-999.0,-99.9,31.27,North,-999,-999.0,-999.0,-999,0.00,,,0.00,,weatherlink.com 1.10,2013-08-14 23:43:00,
2013-08-14 17:57:00,-999.0,-99.9,31.27,North,-999,-999.0,-999.0,-999,0.00,,,0.00,,weatherlink.com 1.10,2013-08-14 23:57:00,
2013-08-14 18:12:00,-999.0,-99.9,31.27,North,-999,-999.0,-999.0,-999,0.00,,,0.00,,weatherlink.com 1.10,2013-08-15 00:12:00,
2013-08-14 18:28:00,-999.0,-99.9,31.27,North,-999,-999.0,-999.0,-999,0.00,,,0.00,,weatherlink.com 1.10,2013-08-15 00:28:00,
2013-08-14 18:43:00,-999.0,-99.9,31.26,North,-999,-999.0,-999.0,-999,0.00,,,0.00,,weatherlink.com 1.10,2013-08-15 00:43:00,
2013-08-14 18:58:00,-999.0,-99.9,31.26,North,-999,-999.0,-999.0,-999,0.00,,,0.00,,weatherlink.com 1.10,2013-08-15 00:58:00,
2013-08-14 19:13:00,-999.0,-99.9,31.26,North,-999,-999.0,-999.0,-999,0.00,,,0.00,,weatherlink.com 1.10,2013-08-15 01:13:00,
2013-08-14 19:28:00,80.8,37.0,31.26,NNE,22,6.0,7.0,21,0.00,,,0.00,79,weatherlink.com 1.10,2013-08-15 01:28:00,
2013-08-14 19:43:00,79.8,39.0,31.26,North,9,2.0,8.0,23,0.00,,,0.00,56,weatherlink.com 1.10,2013-08-15 01:43:00,
2013-08-14 19:58:00,78.5,38.0,31.27,North,11,4.0,4.0,23,0.00,,,0.00,42,weatherlink.com 1.10,2013-08-15 01:58:00,
2013-08-14 20:13:00,77.9,37.0,31.27,NNE,28,0.0,3.0,23,0.00,,,0.00,23,weatherlink.com 1.10,2013-08-15 02:13:00,
2013-08-14 20:28:00,77.7,36.0,31.28,ENE,63,2.0,4.0,22,0.00,,,0.00,12,weatherlink.com 1.10,2013-08-15 02:28:00,
2013-08-14 20:43:00,78.4,35.0,31.28,ENE,73,3.0,7.0,21,0.00,,,0.00,0,weatherlink.com 1.10,2013-08-15 02:43:00,
2013-08-14 20:58:00,78.4,35.0,31.28,ENE,68,0.0,7.0,21,0.00,,,0.00,0,weatherlink.com 1.10,2013-08-15 02:58:00,
2013-08-14 21:13:00,78.8,34.0,31.28,NE,49,3.0,8.0,20,0.00,,,0.00,0,weatherlink.com 1.10,2013-08-15 03:13:00,
2013-08-14 21:28:00,78.2,33.0,31.29,East,81,11.0,14.0,19,0.00,,,0.00,0,weatherlink.com 1.10,2013-08-15 03:28:00,
2013-08-14 21:43:00,78.2,33.0,31.29,East,86,6.0,12.0,19,0.00,,,0.00,0,weatherlink.com 1.10,2013-08-15 03:43:00,
2013-08-14 21:58:00,77.8,31.0,31.30,East,89,7.0,15.0,18,0.00,,,0.00,0,weatherlink.com 1.10,2013-08-15 03:58:00,
2013-08-14 22:13:00,78.1,28.0,31.30,ENE,70,9.0,15.0,16,0.00,,,0.00,0,weatherlink.com 1.10,2013-08-15 04:13:00,
2013-08-14 22:28:00,78.0,28.0,31.30,East,98,10.0,16.0,16,0.00,,,0.00,0,weatherlink.com 1.10,2013-08-15 04:28:00,
2013-08-14 22:43:00,78.0,30.0,31.31,ESE,109,12.0,17.0,17,0.00,,,0.00,0,weatherlink.com 1.10,2013-08-15 04:43:00,
2013-08-14 22:58:00,78.0,28.0,31.31,East,98,9.0,19.0,16,0.00,,,0.00,0,weatherlink.com 1.10,2013-08-15 04:58:00,
2013-08-14 23:13:00,77.7,29.0,31.30,South,184,8.0,15.0,17,0.00,,,0.00,0,weatherlink.com 1.10,2013-08-15 05:13:00,
2013-08-14 23:28:00,77.2,29.0,31.30,SE,130,5.0,13.0,17,0.00,,,0.00,0,weatherlink.com 1.10,2013-08-15 05:28:00,
2013-08-14 23:43:00,76.0,29.0,31.30,SE,134,6.0,7.0,18,0.00,,,0.00,0,weatherlink.com 1.10,2013-08-15 05:43:00,
2013-08-14 23:58:00,75.2,30.0,31.31,SE,132,3.0,5.0,19,0.00,,,0.00,0,weatherlink.com 1.10,2013-08-15 05:58:00,